Time;durP1;ratioP1;P1;durP2;ratioP2;P2;SDS_P1;SDS_P2;PMS_P1;PMS_P2;Temp;Humidity;BMP_temperature;BMP_pressure;BME280_temperature;BME280_humidity;BME280_pressure;Samples;Min_cycle;Max_cycle;Signal;HPM_P1;HPM_P2
2022/07/11 00:02:24;;;;;;;4.10;2.70;;;;;;;17.15;73.45;98757.66;109156;1274;138258;-64
2022/07/11 00:04:50;;;;;;;2.80;2.10;;;;;;;17.14;73.42;98759.23;109346;1274;22498;-64
2022/07/11 00:07:18;;;;;;;3.50;2.40;;;;;;;17.13;73.52;98757.06;109166;1274;138490;-64
2022/07/11 00:09:44;;;;;;;3.00;2.50;;;;;;;17.13;73.53;98755.70;109275;1274;23112;-65
2022/07/11 00:12:12;;;;;;;8.50;2.80;;;;;;;17.11;73.53;98751.06;109345;1274;138574;-64
2022/07/11 00:14:39;;;;;;;4.40;2.40;;;;;;;17.10;73.47;98755.59;109302;1276;22535;-65
2022/07/11 00:17:07;;;;;;;5.90;3.30;;;;;;;17.09;73.48;98756.77;109311;1274;23310;-65
2022/07/11 00:19:36;;;;;;;3.30;2.40;;;;;;;17.06;73.55;98761.88;109249;1274;138044;-65
2022/07/11 00:22:03;;;;;;;6.50;2.40;;;;;;;17.01;73.59;98761.20;109303;1276;22492;-65
2022/07/11 00:24:30;;;;;;;4.10;2.30;;;;;;;17.00;73.66;98759.16;109206;1274;139206;-65
2022/07/11 00:26:57;;;;;;;2.50;2.10;;;;;;;16.99;73.64;98757.86;109383;1274;22517;-65
2022/07/11 00:29:24;;;;;;;4.30;2.70;;;;;;;16.95;73.69;98752.34;109420;1274;22524;-65
2022/07/11 00:31:51;;;;;;;3.70;2.50;;;;;;;16.91;73.76;98750.56;109164;1274;138100;-65
2022/07/11 00:34:18;;;;;;;2.80;2.00;;;;;;;16.87;73.89;98744.70;109421;1274;22583;-65
2022/07/11 00:36:44;;;;;;;3.90;2.00;;;;;;;16.83;73.93;98739.44;106128;1277;139783;-65
2022/07/11 00:39:11;;;;;;;3.40;2.40;;;;;;;16.77;73.91;98740.86;105049;1275;22573;-64
2022/07/11 00:41:38;;;;;;;3.80;1.90;;;;;;;16.72;74.07;98742.92;104988;1276;25477;-65
2022/07/11 00:44:05;;;;;;;5.40;2.20;;;;;;;16.68;74.08;98744.52;104956;1276;138250;-64
2022/07/11 00:46:31;;;;;;;2.80;2.40;;;;;;;16.64;74.17;98743.08;104968;1276;23021;-65
2022/07/11 00:48:59;;;;;;;3.30;2.40;;;;;;;16.60;74.24;98740.17;104972;1274;138527;-65
2022/07/11 00:51:26;;;;;;;3.70;2.40;;;;;;;16.58;74.40;98743.62;105001;1275;22579;-65
2022/07/11 00:53:55;;;;;;;2.90;2.40;;;;;;;16.55;74.59;98739.78;105062;1275;22755;-64
2022/07/11 00:56:23;;;;;;;3.50;2.10;;;;;;;16.51;74.56;98738.95;109244;1274;138476;-65
2022/07/11 00:58:50;;;;;;;2.80;2.50;;;;;;;16.49;74.72;98743.84;109289;1274;23143;-65
2022/07/11 01:01:17;;;;;;;2.90;2.60;;;;;;;16.47;74.78;98741.53;109176;1274;139188;-65
2022/07/11 01:03:45;;;;;;;2.90;2.40;;;;;;;16.47;74.92;98742.89;109361;1273;22470;-65
2022/07/11 01:06:12;;;;;;;3.70;2.60;;;;;;;16.47;75.03;98736.91;107403;1274;138734;-64
2022/07/11 01:08:39;;;;;;;4.80;2.90;;;;;;;16.47;75.07;98732.83;104977;1276;25064;-65
2022/07/11 01:11:12;;;;;;;3.50;2.80;;;;;;;16.47;75.07;98732.12;104874;1275;22716;-65
2022/07/11 01:13:40;;;;;;;2.90;2.40;;;;;;;16.47;75.29;98728.72;104849;1275;139563;-65
2022/07/11 01:16:14;;;;;;;7.50;2.90;;;;;;;16.46;75.18;98727.80;109392;1273;23417;-66
2022/07/11 01:19:00;;;;;;;3.60;2.50;;;;;;;16.43;75.22;98731.79;109303;1274;138307;-65
2022/07/11 01:21:27;;;;;;;4.10;2.40;;;;;;;16.39;75.26;98728.66;109311;1273;22475;-65
2022/07/11 01:23:55;;;;;;;6.30;2.40;;;;;;;16.39;75.49;98731.96;109284;1274;23613;-65
2022/07/11 01:26:23;;;;;;;7.80;2.50;;;;;;;16.39;75.48;98728.34;109217;1274;138698;-65
2022/07/11 01:28:50;;;;;;;4.50;2.40;;;;;;;16.37;75.64;98727.94;109387;1274;22435;-65
2022/07/11 01:31:18;;;;;;;3.90;2.30;;;;;;;16.33;75.76;98726.55;109065;1274;138867;-64
2022/07/11 01:33:44;;;;;;;4.10;3.10;;;;;;;16.30;75.80;98729.85;109350;1274;22460;-64
2022/07/11 01:36:12;;;;;;;3.70;2.90;;;;;;;16.27;75.87;98730.58;107451;1275;22752;-64
2022/07/11 01:38:39;;;;;;;5.80;3.70;;;;;;;16.24;75.96;98730.48;109161;1274;22586;-64
2022/07/11 01:41:06;;;;;;;5.60;3.20;;;;;;;16.21;76.13;98716.49;109299;1274;22404;-66
2022/07/11 01:43:33;;;;;;;5.00;3.40;;;;;;;16.18;76.31;98719.80;109215;1274;138637;-65
2022/07/11 01:46:00;;;;;;;6.70;3.10;;;;;;;16.13;76.43;98727.97;109338;1274;22650;-66
2022/07/11 01:48:27;;;;;;;5.90;2.90;;;;;;;16.09;76.63;98726.19;109135;1274;139654;-65
2022/07/11 01:50:54;;;;;;;4.20;2.60;;;;;;;16.09;76.74;98732.74;109261;1274;22469;-65
2022/07/11 01:53:20;;;;;;;4.20;2.60;;;;;;;16.07;76.94;98724.87;109268;1274;23247;-65
2022/07/11 01:55:47;;;;;;;6.20;3.20;;;;;;;16.05;76.92;98721.33;109169;1273;139705;-65
2022/07/11 01:58:34;;;;;;;5.30;2.90;;;;;;;16.03;77.02;98723.74;109434;1274;22406;-66
2022/07/11 02:01:01;;;;;;;4.90;2.80;;;;;;;16.01;77.14;98723.01;109249;1274;138717;-65
2022/07/11 02:03:28;;;;;;;6.90;3.20;;;;;;;15.98;77.31;98724.45;109263;1275;22529;-66
2022/07/11 02:05:55;;;;;;;3.20;2.70;;;;;;;15.98;77.43;98722.98;109261;1274;24367;-65
2022/07/11 02:08:21;;;;;;;4.50;2.90;;;;;;;15.96;77.50;98715.70;109164;1274;139485;-65
2022/07/11 02:10:49;;;;;;;4.20;2.90;;;;;;;15.97;77.55;98713.98;109266;1276;23133;-65
2022/07/11 02:13:20;;;;;;;8.10;2.80;;;;;;;15.95;77.66;98722.66;109181;1274;138364;-65
2022/07/11 02:15:48;;;;;;;4.60;2.60;;;;;;;15.90;77.81;98729.99;109350;1274;22580;-65
2022/07/11 02:18:14;;;;;;;3.30;2.60;;;;;;;15.89;77.89;98727.95;109196;1274;139547;-63
2022/07/11 02:20:42;;;;;;;5.80;2.30;;;;;;;15.86;78.04;98729.39;109258;1274;22395;-64
2022/07/11 02:23:09;;;;;;;6.60;2.40;;;;;;;15.85;78.23;98727.61;109363;1274;22455;-64
2022/07/11 02:25:38;;;;;;;5.00;2.40;;;;;;;15.84;78.28;98723.08;109188;1274;138266;-64
2022/07/11 02:28:09;;;;;;;4.40;2.20;;;;;;;15.83;78.44;98722.89;109306;1274;22450;-64
2022/07/11 02:30:40;;;;;;;3.70;2.40;;;;;;;15.83;78.52;98726.17;109113;1274;138337;-64
2022/07/11 02:33:15;;;;;;;4.20;2.60;;;;;;;15.85;78.62;98726.80;109329;1274;22621;-64
2022/07/11 02:35:43;;;;;;;4.30;2.30;;;;;;;15.86;78.68;98726.55;109333;1274;22487;-64
2022/07/11 02:38:10;;;;;;;4.70;2.20;;;;;;;15.86;78.79;98724.13;109222;1271;139681;-64
2022/07/11 02:40:37;;;;;;;6.20;2.20;;;;;;;15.85;79.00;98727.13;105591;1274;24328;-63
2022/07/11 02:43:04;;;;;;;3.40;2.50;;;;;;;15.82;79.27;98725.61;105023;1274;137963;-64
2022/07/11 02:45:31;;;;;;;2.90;2.20;;;;;;;15.80;79.45;98718.67;105084;1275;25434;-60
2022/07/11 02:47:58;;;;;;;4.30;2.30;;;;;;;15.79;79.65;98717.05;104995;1274;22596;-60
2022/07/11 02:50:25;;;;;;;3.30;2.60;;;;;;;15.80;79.79;98719.77;104937;1274;138141;-60
2022/07/11 02:52:51;;;;;;;4.00;2.50;;;;;;;15.82;79.82;98716.38;105041;1275;25303;-60
2022/07/11 02:55:18;;;;;;;5.50;2.30;;;;;;;15.84;79.73;98714.73;104960;1274;138366;-59
2022/07/11 02:57:45;;;;;;;2.50;2.20;;;;;;;15.85;79.67;98719.98;104995;1274;22668;-59
2022/07/11 03:00:14;;;;;;;6.60;2.40;;;;;;;15.84;79.54;98717.88;105092;1274;24550;-59
2022/07/11 03:02:41;;;;;;;5.10;2.30;;;;;;;15.83;79.58;98716.73;109219;1276;22588;-60
2022/07/11 03:05:08;;;;;;;7.10;2.80;;;;;;;15.83;79.44;98714.92;109356;1274;22468;-60
2022/07/11 03:07:34;;;;;;;5.50;3.20;;;;;;;15.83;79.45;98714.92;109190;1274;139553;-60
2022/07/11 03:10:01;;;;;;;6.20;2.80;;;;;;;15.83;79.44;98713.27;109239;1274;22561;-60
2022/07/11 03:12:28;;;;;;;4.70;2.80;;;;;;;15.84;79.45;98722.10;109157;1274;138958;-61
2022/07/11 03:14:55;;;;;;;5.60;2.60;;;;;;;15.84;79.36;98722.04;109304;1274;22958;-61
2022/07/11 03:17:22;;;;;;;4.10;2.50;;;;;;;15.85;79.28;98722.29;109300;1274;22427;-60
2022/07/11 03:19:49;;;;;;;3.20;2.60;;;;;;;15.87;79.25;98724.80;109291;1274;138195;-60
2022/07/11 03:22:16;;;;;;;3.20;2.40;;;;;;;15.89;79.13;98725.74;109201;1274;22451;-60
2022/07/11 03:24:42;;;;;;;3.60;2.70;;;;;;;15.91;79.04;98727.57;109165;1274;139038;-60
2022/07/11 03:27:09;;;;;;;7.80;3.00;;;;;;;15.93;79.00;98728.95;109279;1274;22502;-60
2022/07/11 03:29:40;;;;;;;3.40;2.40;;;;;;;15.96;78.83;98732.56;109367;1273;23200;-60
2022/07/11 03:32:08;;;;;;;4.00;2.50;;;;;;;15.97;78.66;98732.45;109204;1274;140375;-60
2022/07/11 03:34:35;;;;;;;3.80;2.70;;;;;;;15.95;78.66;98732.16;109210;1274;22638;-60
2022/07/11 03:37:02;;;;;;;4.80;2.80;;;;;;;15.96;78.64;98731.42;109230;1273;138738;-60
2022/07/11 03:39:29;;;;;;;4.80;3.10;;;;;;;15.99;78.64;98736.54;109390;1274;22473;-60
2022/07/11 03:41:56;;;;;;;5.70;3.00;;;;;;;16.02;78.65;98740.45;109435;1273;22621;-60
2022/07/11 03:44:23;;;;;;;6.80;3.80;;;;;;;16.04;78.51;98742.64;109217;1273;139368;-60
2022/07/11 03:46:50;;;;;;;8.30;4.80;;;;;;;16.06;78.51;98744.40;109403;1274;22428;-59
2022/07/11 03:49:17;;;;;;;9.40;5.70;;;;;;;16.10;78.47;98742.66;109182;1273;138280;-59
2022/07/11 03:51:44;;;;;;;10.90;6.80;;;;;;;16.14;78.40;98741.61;109271;1274;22675;-59
2022/07/11 03:54:11;;;;;;;15.70;7.50;;;;;;;16.18;78.07;98737.45;109186;1276;22536;-60
2022/07/11 03:56:37;;;;;;;19.90;8.50;;;;;;;16.21;78.04;98743.59;109278;1272;138007;-60
2022/07/11 03:59:04;;;;;;;19.30;10.50;;;;;;;16.23;77.87;98744.25;109408;1273;22310;-58
2022/07/11 04:01:31;;;;;;;21.40;10.40;;;;;;;16.25;77.68;98746.95;109151;1274;138548;-60
2022/07/11 04:03:58;;;;;;;20.60;11.40;;;;;;;16.26;77.47;98749.13;109233;1273;22467;-59
2022/07/11 04:06:25;;;;;;;22.10;11.50;;;;;;;16.25;77.37;98751.94;109194;1274;138528;-60
2022/07/11 04:08:52;;;;;;;23.50;12.10;;;;;;;16.26;77.51;98751.36;109343;1273;22424;-60
2022/07/11 04:11:19;;;;;;;26.60;13.70;;;;;;;16.30;77.63;98754.59;109410;1274;23105;-60
2022/07/11 04:13:46;;;;;;;26.10;14.50;;;;;;;16.33;77.58;98751.29;109216;1273;138489;-60
2022/07/11 04:16:13;;;;;;;28.10;14.80;;;;;;;16.36;77.39;98754.48;109402;1274;22462;-60
2022/07/11 04:18:40;;;;;;;29.70;16.00;;;;;;;16.37;77.36;98749.55;109316;1273;138890;-60
2022/07/11 04:21:07;;;;;;;33.90;18.20;;;;;;;16.41;77.21;98749.45;109373;1274;22472;-59
2022/07/11 04:23:35;;;;;;;41.50;18.60;;;;;;;16.42;77.01;98748.33;109402;1273;23168;-60
2022/07/11 04:26:03;;;;;;;33.90;17.70;;;;;;;16.44;76.87;98747.39;109155;1274;138910;-64
2022/07/11 04:28:30;;;;;;;36.50;19.90;;;;;;;16.45;76.84;98740.20;109276;1274;22384;-63
2022/07/11 04:30:57;;;;;;;39.30;19.10;;;;;;;16.43;76.70;98740.66;109199;1273;139772;-64
2022/07/11 04:33:24;;;;;;;32.70;18.30;;;;;;;16.40;76.74;98738.86;109456;1273;22447;-64
2022/07/11 04:35:51;;;;;;;39.70;17.40;;;;;;;16.38;76.68;98740.14;108892;1274;536485;-64
2022/07/11 04:39:01;;;;;;;33.80;17.70;;;;;;;16.37;76.75;98739.16;101887;1310;546105;-64
2022/07/11 04:41:27;;;;;;;36.60;17.10;;;;;;;16.32;76.71;98736.77;104248;1284;26018;-64
2022/07/11 04:43:54;;;;;;;32.10;17.40;;;;;;;16.29;76.87;98739.44;103950;1287;139874;-64
2022/07/11 04:46:21;;;;;;;37.10;18.20;;;;;;;16.22;77.03;98737.77;103866;1287;22583;-64
2022/07/11 04:48:48;;;;;;;30.80;17.60;;;;;;;16.18;77.24;98739.09;103852;1287;138984;-63
2022/07/11 04:51:16;;;;;;;34.40;17.30;;;;;;;16.16;77.53;98742.23;104097;1284;22632;-64
2022/07/11 04:53:43;;;;;;;32.90;18.10;;;;;;;16.16;77.71;98750.57;104088;1283;395855;-63
2022/07/11 04:56:11;;;;;;;33.20;17.20;;;;;;;16.18;77.75;98748.83;104465;1283;138173;-60
2022/07/11 04:58:37;;;;;;;38.40;18.70;;;;;;;16.19;77.79;98745.60;104483;1283;22731;-60
2022/07/11 05:01:04;;;;;;;32.50;17.30;;;;;;;16.18;77.78;98743.20;104426;1283;138470;-60
2022/07/11 05:03:34;;;;;;;34.40;16.70;;;;;;;16.18;77.81;98743.75;108681;1282;22545;-60
2022/07/11 05:06:01;;;;;;;35.70;17.10;;;;;;;16.18;77.80;98747.28;108673;1283;22458;-60
2022/07/11 05:08:29;;;;;;;27.80;14.80;;;;;;;16.19;77.85;98752.69;108534;1283;138177;-60
2022/07/11 05:10:56;;;;;;;33.00;17.00;;;;;;;16.22;77.82;98748.89;108609;1282;22531;-61
2022/07/11 05:13:23;;;;;;;31.70;15.50;;;;;;;16.26;77.83;98749.55;108500;1283;138107;-61
2022/07/11 05:15:49;;;;;;;28.80;15.70;;;;;;;16.33;78.03;98746.69;109058;1277;23650;-60
2022/07/11 05:18:16;;;;;;;31.40;13.70;;;;;;;16.39;77.99;98751.86;109056;1278;23252;-61
2022/07/11 05:20:43;;;;;;;30.70;13.80;;;;;;;16.47;77.90;98752.70;109057;1279;22579;-61
2022/07/11 05:23:10;;;;;;;24.10;13.00;;;;;;;16.54;77.59;98755.70;109113;1278;22460;-60
2022/07/11 05:25:36;;;;;;;22.70;13.30;;;;;;;16.62;77.41;98757.91;108950;1278;138945;-58
2022/07/11 05:28:03;;;;;;;24.60;12.80;;;;;;;16.72;77.30;98754.09;108773;1280;23100;-59
2022/07/11 05:30:30;;;;;;;18.20;11.50;;;;;;;16.85;76.89;98756.63;108967;1278;138454;-59
2022/07/11 05:32:57;;;;;;;22.80;11.60;;;;;;;16.97;76.11;98754.71;109048;1279;22560;-59
2022/07/11 05:35:25;;;;;;;22.20;11.80;;;;;;;17.06;75.81;98749.84;109106;1278;23495;-59
2022/07/11 05:37:52;;;;;;;23.10;11.90;;;;;;;17.15;75.59;98747.79;108981;1278;138558;-59
2022/07/11 05:40:19;;;;;;;23.30;11.80;;;;;;;17.25;75.09;98753.46;109067;1280;22452;-59
2022/07/11 05:42:46;;;;;;;20.10;11.30;;;;;;;17.32;74.70;98754.34;108960;1278;140621;-59
2022/07/11 05:45:13;;;;;;;20.50;11.60;;;;;;;17.38;74.34;98753.74;109077;1278;22545;-59
2022/07/11 05:47:39;;;;;;;23.90;10.70;;;;;;;17.47;74.24;98749.31;109029;1278;22634;-59
2022/07/11 05:50:07;;;;;;;22.20;10.40;;;;;;;17.60;73.92;98747.26;108979;1278;139189;-59
2022/07/11 05:52:33;;;;;;;19.70;10.90;;;;;;;17.75;73.91;98742.05;109032;1279;22563;-59
2022/07/11 05:55:00;;;;;;;19.80;10.30;;;;;;;17.92;73.49;98744.63;108903;1278;140692;-60
2022/07/11 05:57:27;;;;;;;19.20;10.00;;;;;;;18.03;72.57;98738.98;109044;1278;22621;-60
2022/07/11 05:59:54;;;;;;;21.20;10.20;;;;;;;18.11;72.21;98742.18;109097;1279;22612;-59
2022/07/11 06:02:21;;;;;;;24.00;10.50;;;;;;;18.15;71.93;98744.16;108950;1277;139844;-59
2022/07/11 06:04:47;;;;;;;18.30;9.90;;;;;;;18.20;71.80;98742.48;109096;1278;22735;-59
2022/07/11 06:10:01;;;;;;;23.90;10.90;;;;;;;18.33;70.79;98745.97;108799;1280;22645;-59
2022/07/11 06:12:28;;;;;;;18.90;8.60;;;;;;;18.34;70.83;98742.33;108894;1277;138708;-60
2022/07/11 06:14:55;;;;;;;21.00;8.20;;;;;;;18.41;70.98;98740.41;109079;1278;22632;-59
2022/07/11 06:17:22;;;;;;;19.70;8.90;;;;;;;18.48;70.65;98737.27;109026;1279;22488;-59
2022/07/11 06:19:49;;;;;;;13.50;8.10;;;;;;;18.53;69.96;98741.95;108918;1278;138266;-61
2022/07/11 06:22:15;;;;;;;15.60;7.80;;;;;;;18.56;69.73;98737.84;109055;1278;22472;-59
2022/07/11 06:24:50;;;;;;;16.20;8.20;;;;;;;18.60;69.72;98740.09;108993;1278;138638;-60
2022/07/11 06:27:17;;;;;;;11.70;7.60;;;;;;;18.65;69.60;98743.61;109117;1278;22616;-59
2022/07/11 06:29:44;;;;;;;16.40;9.10;;;;;;;18.68;69.24;98741.06;109091;1278;22555;-59
2022/07/11 06:32:10;;;;;;;16.90;7.60;;;;;;;18.67;69.08;98738.66;108973;1278;138852;-59
2022/07/11 06:34:37;;;;;;;19.00;8.10;;;;;;;18.68;68.96;98738.30;109053;1278;23278;-59
2022/07/11 06:37:04;;;;;;;12.20;7.10;;;;;;;18.71;69.14;98738.89;108954;1277;137730;-59
2022/07/11 06:39:31;;;;;;;11.40;7.10;;;;;;;18.76;68.58;98738.63;109095;1277;22465;-59
2022/07/11 06:41:58;;;;;;;14.20;7.50;;;;;;;18.85;68.79;98747.20;109046;1278;22557;-59
2022/07/11 06:44:24;;;;;;;19.00;6.90;;;;;;;18.91;68.39;98738.76;108938;1280;138271;-59
2022/07/11 06:46:54;;;;;;;9.10;5.30;;;;;;;18.96;68.20;98739.30;109035;1278;23358;-59
2022/07/11 06:49:21;;;;;;;13.20;5.70;;;;;;;18.99;67.54;98736.48;108956;1278;139620;-59
2022/07/11 06:51:48;;;;;;;10.00;6.00;;;;;;;19.02;67.72;98734.02;109087;1278;22498;-59
2022/07/11 06:54:15;;;;;;;11.30;6.40;;;;;;;19.06;67.78;98735.92;109082;1278;23359;-59
2022/07/11 06:56:42;;;;;;;8.70;4.90;;;;;;;19.11;67.65;98735.96;108961;1278;139237;-59
2022/07/11 06:59:08;;;;;;;11.20;5.20;;;;;;;19.17;67.13;98736.83;109078;1277;22700;-58
2022/07/11 07:01:35;;;;;;;9.80;6.10;;;;;;;19.18;66.77;98734.92;108931;1278;138701;-59
2022/07/11 07:04:02;;;;;;;8.40;5.20;;;;;;;19.20;66.77;98732.75;109044;1280;22440;-59
2022/07/11 07:06:29;;;;;;;11.40;5.20;;;;;;;19.22;67.18;98731.73;108961;1278;140151;-60
2022/07/11 07:08:56;;;;;;;13.20;5.40;;;;;;;19.29;67.13;98729.56;109044;1278;23253;-59
2022/07/11 07:11:22;;;;;;;10.80;5.70;;;;;;;19.36;67.02;98732.75;108957;1277;23180;-59
2022/07/11 07:13:50;;;;;;;7.00;4.70;;;;;;;19.45;66.54;98732.41;108948;1277;138191;-59
2022/07/11 07:16:17;;;;;;;11.20;4.60;;;;;;;19.55;66.16;98737.41;109191;1277;22554;-59
2022/07/11 07:18:45;;;;;;;8.50;4.50;;;;;;;19.66;65.87;98739.08;109013;1277;139920;-59
2022/07/11 07:21:13;;;;;;;4.80;3.20;;;;;;;19.74;64.66;98740.61;108933;1278;23263;-60
2022/07/11 07:23:40;;;;;;;6.80;4.20;;;;;;;19.81;64.09;98731.73;109015;1278;22447;-59
2022/07/11 07:26:07;;;;;;;6.00;3.90;;;;;;;19.86;64.40;98727.50;109081;1277;138504;-59
2022/07/11 07:28:34;;;;;;;9.20;4.00;;;;;;;19.95;63.97;98732.52;109073;1279;22466;-59
2022/07/11 07:31:01;;;;;;;8.40;4.20;;;;;;;20.03;63.43;98732.34;108962;1277;138404;-60
2022/07/11 07:33:28;;;;;;;8.50;3.10;;;;;;;20.11;62.85;98736.12;109050;1278;22468;-59
2022/07/11 07:36:11;;;;;;;8.00;3.50;;;;;;;20.19;62.59;98735.30;109092;1278;22456;-59
2022/07/11 07:38:39;;;;;;;4.90;3.20;;;;;;;20.27;61.98;98730.75;108937;1277;138022;-59
2022/07/11 07:41:06;;;;;;;8.10;3.40;;;;;;;20.32;62.17;98733.15;108992;1280;22460;-59
2022/07/11 07:43:33;;;;;;;6.00;2.50;;;;;;;20.38;61.42;98733.85;109076;1279;137333;-59
2022/07/11 07:45:59;;;;;;;6.50;2.40;;;;;;;20.40;60.38;98734.41;109032;1277;24473;-59
2022/07/11 07:48:26;;;;;;;16.70;3.60;;;;;;;20.40;59.66;98734.97;108899;1278;137350;-59
2022/07/11 07:50:59;;;;;;;7.90;2.30;;;;;;;20.40;59.11;98738.85;108930;1281;22700;-59
2022/07/11 07:53:26;;;;;;;3.30;2.30;;;;;;;20.41;59.30;98735.88;108993;1277;22487;-59
2022/07/11 07:55:53;;;;;;;5.60;2.00;;;;;;;20.44;58.86;98741.58;108929;1277;137274;-59
2022/07/11 07:58:19;;;;;;;4.30;2.10;;;;;;;20.45;58.77;98732.95;108975;1278;22456;-59
2022/07/11 08:03:32;;;;;;;4.90;1.60;;;;;;;20.47;58.62;98731.34;109026;1278;22613;-59
2022/07/11 08:05:58;;;;;;;2.30;1.50;;;;;;;20.50;58.18;98734.02;109036;1278;23302;-59
2022/07/11 08:08:25;;;;;;;2.00;1.30;;;;;;;20.53;57.74;98735.57;108940;1277;138341;-58
2022/07/11 08:10:52;;;;;;;1.90;1.50;;;;;;;20.57;56.75;98734.44;109232;1276;22454;-58
2022/07/11 08:13:19;;;;;;;4.70;1.50;;;;;;;20.57;56.75;98729.15;108822;1280;140355;-58
2022/07/11 08:15:46;;;;;;;5.50;1.60;;;;;;;20.58;57.02;98726.73;109083;1277;22415;-58
2022/07/11 08:18:13;;;;;;;4.00;1.70;;;;;;;20.59;57.07;98734.80;109163;1277;22571;-59
2022/07/11 08:20:40;;;;;;;5.00;1.80;;;;;;;20.59;57.07;98731.27;109063;1277;138536;-58
2022/07/11 08:23:07;;;;;;;2.70;1.40;;;;;;;20.59;57.14;98736.73;109196;1277;22526;-58
2022/07/11 08:25:33;;;;;;;2.60;1.50;;;;;;;20.60;56.53;98737.54;109052;1277;137396;-59
2022/07/11 08:28:00;;;;;;;3.10;1.50;;;;;;;20.60;56.82;98739.39;108153;1277;23098;-60
2022/07/11 08:30:27;;;;;;;4.40;1.80;;;;;;;20.61;56.33;98739.33;104552;1277;139196;-59
2022/07/11 08:32:54;;;;;;;3.70;1.50;;;;;;;20.58;56.14;98737.65;104888;1277;25408;-59
2022/07/11 08:35:21;;;;;;;2.60;1.50;;;;;;;20.57;56.64;98741.31;104870;1278;25687;-59
2022/07/11 08:37:47;;;;;;;1.50;1.30;;;;;;;20.56;56.96;98738.20;104799;1277;137667;-59
2022/07/11 08:40:14;;;;;;;4.30;1.40;;;;;;;20.56;57.54;98742.55;105029;1278;25145;-58
2022/07/11 08:42:42;;;;;;;2.50;1.60;;;;;;;20.58;57.76;98735.98;104845;1278;137476;-58
2022/07/11 08:45:16;;;;;;;2.30;1.40;;;;;;;20.61;57.40;98740.36;104910;1277;24225;-59
2022/07/11 08:47:43;;;;;;;2.30;1.60;;;;;;;20.60;57.33;98746.50;104838;1278;22564;-59
2022/07/11 08:50:12;;;;;;;3.20;1.30;;;;;;;20.60;57.49;98742.61;104751;1278;139047;-59
2022/07/11 08:52:38;;;;;;;3.20;1.70;;;;;;;20.60;57.22;98748.64;109239;1277;22458;-59
2022/07/11 08:55:08;;;;;;;2.90;1.50;;;;;;;20.60;57.43;98749.35;109176;1277;139922;-59
2022/07/11 08:57:36;;;;;;;2.70;1.30;;;;;;;20.61;56.84;98747.16;109171;1277;23219;-59
2022/07/11 09:00:05;;;;;;;2.70;2.20;;;;;;;20.61;56.86;98748.17;109195;1277;22473;-59
2022/07/11 09:02:33;;;;;;;1.80;1.60;;;;;;;20.60;57.17;98748.95;109075;1277;139101;-59
2022/07/11 09:05:02;;;;;;;2.00;1.60;;;;;;;20.62;57.34;98752.35;109182;1277;22318;-59
2022/07/11 09:07:30;;;;;;;2.60;1.50;;;;;;;20.64;56.76;98748.60;109108;1277;139507;-59
2022/07/11 09:09:57;;;;;;;4.90;1.50;;;;;;;20.67;56.18;98745.61;109184;1277;22443;-59
2022/07/11 09:12:23;;;;;;;4.30;1.50;;;;;;;20.70;56.07;98745.95;108996;1277;139196;-60
2022/07/11 09:14:53;;;;;;;8.60;2.00;;;;;;;20.74;56.26;98744.38;109105;1277;23329;-59
2022/07/11 09:17:26;;;;;;;1.90;1.50;;;;;;;20.81;57.06;98741.73;109152;1277;23413;-59
2022/07/11 09:19:52;;;;;;;1.90;1.40;;;;;;;20.92;56.62;98736.72;109113;1277;137703;-59
2022/07/11 09:25:31;;;;;;;6.30;1.50;;;;;;;21.09;55.96;98738.79;109118;1277;137555;-61
2022/07/11 09:28:05;;;;;;;4.90;1.90;;;;;;;21.11;55.57;98735.61;109200;1277;22306;-59
2022/07/11 09:30:35;;;;;;;5.00;1.80;;;;;;;21.11;55.19;98736.41;109102;1277;138210;-60
2022/07/11 09:33:03;;;;;;;3.20;1.60;;;;;;;21.10;55.40;98731.88;109180;1277;23253;-60
2022/07/11 09:35:38;;;;;;;2.20;1.70;;;;;;;21.10;56.06;98733.13;109126;1277;22473;-59
2022/07/11 09:38:09;;;;;;;2.10;1.60;;;;;;;21.13;56.44;98731.58;108957;1277;138607;-59
2022/07/11 09:40:36;;;;;;;5.40;2.10;;;;;;;21.15;56.49;98733.38;109259;1277;22537;-59
2022/07/11 09:43:03;;;;;;;3.90;1.70;;;;;;;21.15;57.08;98725.84;109018;1277;139019;-59
2022/07/11 09:45:31;;;;;;;5.80;1.50;;;;;;;21.15;57.02;98727.27;109324;1276;22479;-58
2022/07/11 09:48:00;;;;;;;4.40;1.70;;;;;;;21.16;57.13;98722.73;109185;1277;23364;-59
2022/07/11 09:50:30;;;;;;;3.10;2.00;;;;;;;21.18;56.47;98723.60;109156;1276;137438;-59
2022/07/11 09:53:04;;;;;;;2.30;1.30;;;;;;;21.19;55.41;98715.73;109137;1277;22389;-59
2022/07/11 09:55:32;;;;;;;2.90;1.30;;;;;;;21.21;55.29;98715.05;109137;1277;137331;-59
2022/07/11 09:58:18;;;;;;;2.60;1.50;;;;;;;21.24;55.38;98720.99;109208;1277;22487;-59
2022/07/11 10:00:45;;;;;;;5.40;1.90;;;;;;;21.25;55.67;98722.23;109101;1277;139092;-59
2022/07/11 10:03:12;;;;;;;3.70;2.00;;;;;;;21.25;55.04;98719.14;109156;1277;23371;-59
2022/07/11 10:05:58;;;;;;;5.20;1.70;;;;;;;21.26;55.41;98715.29;109257;1276;22469;-60
2022/07/11 10:08:25;;;;;;;3.40;1.90;;;;;;;21.28;54.94;98714.25;108962;1277;138930;-59
2022/07/11 10:10:52;;;;;;;4.10;1.70;;;;;;;21.29;54.56;98719.42;109261;1276;23188;-60
2022/07/11 10:13:19;;;;;;;5.20;2.80;;;;;;;21.28;54.88;98720.35;109189;1276;137431;-60
2022/07/11 10:15:46;;;;;;;12.80;4.20;;;;;;;21.27;56.72;98720.78;108129;1277;25328;-59
2022/07/11 10:18:29;;;;;;;11.30;4.50;;;;;;;21.21;57.41;98721.48;104718;1278;138052;-61
2022/07/11 10:20:59;;;;;;;14.30;5.00;;;;;;;21.13;57.92;98723.49;104973;1277;24262;-59
2022/07/11 10:23:41;;;;;;;6.30;3.40;;;;;;;21.06;58.46;98712.98;104777;1277;24283;-58
2022/07/11 10:26:14;;;;;;;15.10;5.10;;;;;;;21.02;59.04;98719.35;104766;1277;138342;-59
2022/07/11 10:28:48;;;;;;;7.70;4.70;;;;;;;21.01;59.09;98718.26;104942;1278;22586;-58
2022/07/11 10:31:19;;;;;;;8.50;4.50;;;;;;;20.96;58.78;98723.23;109084;1276;137558;-59
2022/07/11 10:34:10;;;;;;;9.40;4.10;;;;;;;20.85;58.92;98720.20;109243;1277;23319;-59
2022/07/11 10:36:41;;;;;;;8.60;4.70;;;;;;;20.70;59.05;98726.50;109040;1277;137580;-59
2022/07/11 10:39:29;;;;;;;13.20;5.60;;;;;;;20.56;59.45;98731.64;109212;1277;22455;-59
2022/07/11 10:41:57;;;;;;;13.40;5.00;;;;;;;20.47;59.59;98735.05;109264;1277;22462;-62
2022/07/11 10:44:25;;;;;;;13.40;5.00;;;;;;;20.39;59.61;98737.91;109126;1277;138494;-60
2022/07/11 10:46:54;;;;;;;10.40;5.90;;;;;;;20.27;60.08;98742.11;109250;1277;22486;-60
2022/07/11 10:49:25;;;;;;;11.40;6.30;;;;;;;20.10;60.54;98746.09;109163;1277;138373;-60
2022/07/11 10:52:06;;;;;;;12.50;6.20;;;;;;;19.96;61.09;98745.59;109025;1277;22705;-59
2022/07/11 10:54:58;;;;;;;9.40;5.10;;;;;;;19.83;61.64;98747.79;109108;1277;139427;-59
2022/07/11 10:57:33;;;;;;;;;;;;;;;19.71;61.75;98747.50;109233;1277;22469;-59
2022/07/11 11:00:04;;;;;;;9.00;4.80;;;;;;;19.58;61.37;98744.30;109177;1277;22556;-59
2022/07/11 11:02:31;;;;;;;7.50;3.70;;;;;;;19.44;61.72;98744.16;109174;1276;139079;-58
2022/07/11 11:04:59;;;;;;;8.10;4.30;;;;;;;19.32;62.36;98742.50;109240;1277;23147;-58
2022/07/11 11:07:36;;;;;;;7.80;4.00;;;;;;;19.19;62.69;98740.79;109050;1277;138276;-59
2022/07/11 11:10:05;;;;;;;12.60;5.00;;;;;;;19.07;63.11;98740.77;109243;1277;22424;-58
2022/07/11 11:13:05;;;;;;;5.70;3.40;;;;;;;18.94;63.53;98742.52;109038;1277;138340;-59
2022/07/11 11:15:41;;;;;;;6.70;3.60;;;;;;;18.83;64.03;98748.93;108572;1283;22494;-59
2022/07/11 11:18:26;;;;;;;7.00;3.40;;;;;;;18.79;64.42;98753.23;108599;1283;23055;-59
2022/07/11 11:21:02;;;;;;;12.10;3.30;;;;;;;18.71;64.67;98749.47;105334;1283;24774;-59
2022/07/11 11:23:29;;;;;;;6.30;2.80;;;;;;;18.64;64.23;98750.91;104238;1283;26489;-59
2022/07/11 11:26:13;;;;;;;4.90;3.30;;;;;;;18.60;64.14;98742.94;104183;1283;138561;-59
2022/07/11 11:28:55;;;;;;;3.80;2.50;;;;;;;18.58;63.93;98744.40;104289;1284;24060;-59
2022/07/11 11:31:22;;;;;;;4.40;2.20;;;;;;;18.56;63.47;98750.98;104317;1283;139262;-59
2022/07/11 11:33:49;;;;;;;13.50;3.00;;;;;;;18.53;63.48;98752.35;104304;1283;24068;-59